sensor_id;sensor_type;location;lat;lon;timestamp;pressure;altitude;pressure_sealevel;temperature;humidity
70217;BME280;65567;55.684;37.570;2023-01-29T00:01:47;99354.28;;;1.66;58.01
70217;BME280;65567;55.684;37.570;2023-01-29T00:04:13;99353.22;;;1.83;57.22
70217;BME280;65567;55.684;37.570;2023-01-29T00:06:39;99353.38;;;1.69;57.24
70217;BME280;65567;55.684;37.570;2023-01-29T00:09:05;99352.75;;;1.49;57.41
70217;BME280;65567;55.684;37.570;2023-01-29T00:11:31;99358.72;;;1.56;57.31
70217;BME280;65567;55.684;37.570;2023-01-29T00:13:57;99344.84;;;1.63;57.44
70217;BME280;65567;55.684;37.570;2023-01-29T00:16:23;99359.22;;;1.86;56.36
70217;BME280;65567;55.684;37.570;2023-01-29T00:18:49;99356.78;;;1.74;56.51
70217;BME280;65567;55.684;37.570;2023-01-29T00:21:18;99351.84;;;1.52;56.74
70217;BME280;65567;55.684;37.570;2023-01-29T00:23:44;99348.50;;;1.45;56.93
70217;BME280;65567;55.684;37.570;2023-01-29T00:26:11;99344.31;;;1.38;56.85
70217;BME280;65567;55.684;37.570;2023-01-29T00:28:37;99342.59;;;1.36;56.89
70217;BME280;65567;55.684;37.570;2023-01-29T00:31:14;99340.81;;;1.42;56.93
70217;BME280;65567;55.684;37.570;2023-01-29T00:33:40;99341.66;;;1.43;56.81
70217;BME280;65567;55.684;37.570;2023-01-29T00:36:08;99343.31;;;1.47;56.84
70217;BME280;65567;55.684;37.570;2023-01-29T00:38:35;99343.19;;;1.59;56.91
70217;BME280;65567;55.684;37.570;2023-01-29T00:41:13;99332.00;;;1.57;56.63
70217;BME280;65567;55.684;37.570;2023-01-29T00:43:58;99333.72;;;1.58;56.70
70217;BME280;65567;55.684;37.570;2023-01-29T00:46:43;99332.72;;;1.69;56.44
70217;BME280;65567;55.684;37.570;2023-01-29T00:49:09;99333.44;;;1.80;56.17
70217;BME280;65567;55.684;37.570;2023-01-29T00:51:36;99325.84;;;1.71;56.48
70217;BME280;65567;55.684;37.570;2023-01-29T00:54:03;99321.59;;;1.67;56.49
70217;BME280;65567;55.684;37.570;2023-01-29T00:56:34;99324.38;;;1.51;56.91
70217;BME280;65567;55.684;37.570;2023-01-29T00:59:00;99324.50;;;1.39;57.42
70217;BME280;65567;55.684;37.570;2023-01-29T01:01:26;99331.31;;;1.46;57.26
70217;BME280;65567;55.684;37.570;2023-01-29T01:04:11;99329.53;;;1.49;57.55
70217;BME280;65567;55.684;37.570;2023-01-29T01:06:38;99331.22;;;1.54;57.81
70217;BME280;65567;55.684;37.570;2023-01-29T01:09:05;99325.25;;;1.48;57.58
70217;BME280;65567;55.684;37.570;2023-01-29T01:11:49;99329.75;;;1.31;57.85
70217;BME280;65567;55.684;37.570;2023-01-29T01:14:17;99323.75;;;1.27;57.66
70217;BME280;65567;55.684;37.570;2023-01-29T01:16:44;99322.91;;;1.28;57.73
70217;BME280;65567;55.684;37.570;2023-01-29T01:19:11;99326.28;;;1.34;57.68
70217;BME280;65567;55.684;37.570;2023-01-29T01:21:38;99327.06;;;1.42;57.29
70217;BME280;65567;55.684;37.570;2023-01-29T01:24:04;99335.75;;;1.33;57.11
70217;BME280;65567;55.684;37.570;2023-01-29T01:26:31;99329.13;;;1.09;57.01
70217;BME280;65567;55.684;37.570;2023-01-29T01:28:58;99329.34;;;0.89;56.92
70217;BME280;65567;55.684;37.570;2023-01-29T01:31:24;99336.34;;;0.73;57.09
70217;BME280;65567;55.684;37.570;2023-01-29T01:33:50;99338.09;;;0.71;56.85
70217;BME280;65567;55.684;37.570;2023-01-29T01:36:16;99328.75;;;0.60;56.81
70217;BME280;65567;55.684;37.570;2023-01-29T01:38:43;99328.78;;;0.57;56.46
70217;BME280;65567;55.684;37.570;2023-01-29T01:41:17;99326.13;;;0.67;56.13
70217;BME280;65567;55.684;37.570;2023-01-29T01:43:54;99329.50;;;0.70;56.20
70217;BME280;65567;55.684;37.570;2023-01-29T01:46:23;99319.22;;;0.69;55.93
70217;BME280;65567;55.684;37.570;2023-01-29T01:48:57;99322.63;;;0.71;56.00
70217;BME280;65567;55.684;37.570;2023-01-29T01:51:27;99323.47;;;0.73;55.88
70217;BME280;65567;55.684;37.570;2023-01-29T01:53:59;99311.38;;;0.81;55.56
70217;BME280;65567;55.684;37.570;2023-01-29T01:56:30;99309.59;;;0.86;55.38
70217;BME280;65567;55.684;37.570;2023-01-29T01:59:06;99303.56;;;0.89;55.43
70217;BME280;65567;55.684;37.570;2023-01-29T02:01:34;99304.34;;;0.95;55.11
70217;BME280;65567;55.684;37.570;2023-01-29T02:04:03;99307.75;;;0.97;55.13
70217;BME280;65567;55.684;37.570;2023-01-29T02:06:50;99298.19;;;1.07;54.76
70217;BME280;65567;55.684;37.570;2023-01-29T02:09:39;99293.88;;;1.09;54.50
70217;BME280;65567;55.684;37.570;2023-01-29T02:12:12;99290.47;;;1.06;54.50
70217;BME280;65567;55.684;37.570;2023-01-29T02:14:40;99288.63;;;1.17;54.19
70217;BME280;65567;55.684;37.570;2023-01-29T02:17:12;99285.06;;;1.27;54.19
70217;BME280;65567;55.684;37.570;2023-01-29T02:19:51;99283.19;;;1.42;53.69
70217;BME280;65567;55.684;37.570;2023-01-29T02:28:28;99276.38;;;1.35;52.98
70217;BME280;65567;55.684;37.570;2023-01-29T02:31:11;99269.44;;;1.40;53.07
70217;BME280;65567;55.684;37.570;2023-01-29T02:39:14;99252.53;;;1.14;52.75
70217;BME280;65567;55.684;37.570;2023-01-29T02:41:49;99243.09;;;1.13;52.93
70217;BME280;65567;55.684;37.570;2023-01-29T02:46:59;99253.25;;;1.27;52.50
70217;BME280;65567;55.684;37.570;2023-01-29T02:49:34;99251.56;;;1.24;52.24
70217;BME280;65567;55.684;37.570;2023-01-29T02:52:36;99244.78;;;1.15;52.42
70217;BME280;65567;55.684;37.570;2023-01-29T02:55:51;99239.69;;;1.11;52.35
70217;BME280;65567;55.684;37.570;2023-01-29T02:58:37;99229.44;;;1.05;52.20
70217;BME280;65567;55.684;37.570;2023-01-29T03:01:30;99225.25;;;0.96;52.35
70217;BME280;65567;55.684;37.570;2023-01-29T03:04:03;99218.22;;;1.07;52.40
70217;BME280;65567;55.684;37.570;2023-01-29T03:06:38;99224.19;;;1.12;52.04
70217;BME280;65567;55.684;37.570;2023-01-29T03:09:31;99217.31;;;1.11;52.15
70217;BME280;65567;55.684;37.570;2023-01-29T03:12:04;99217.47;;;1.01;52.17
70217;BME280;65567;55.684;37.570;2023-01-29T03:14:46;99216.69;;;0.92;52.58
70217;BME280;65567;55.684;37.570;2023-01-29T03:17:38;99202.00;;;0.97;52.43
70217;BME280;65567;55.684;37.570;2023-01-29T03:20:10;99205.56;;;0.89;52.61
70217;BME280;65567;55.684;37.570;2023-01-29T03:22:39;99199.66;;;0.79;52.62
70217;BME280;65567;55.684;37.570;2023-01-29T03:25:09;99197.00;;;0.85;52.70
70217;BME280;65567;55.684;37.570;2023-01-29T03:27:57;99198.59;;;0.97;52.34
70217;BME280;65567;55.684;37.570;2023-01-29T03:30:51;99192.63;;;0.92;52.02
70217;BME280;65567;55.684;37.570;2023-01-29T03:34:20;99182.38;;;0.86;52.20
70217;BME280;65567;55.684;37.570;2023-01-29T03:36:57;99177.19;;;0.90;51.98
70217;BME280;65567;55.684;37.570;2023-01-29T03:39:27;99171.91;;;0.99;51.86
70217;BME280;65567;55.684;37.570;2023-01-29T03:42:01;99168.47;;;0.99;51.88
70217;BME280;65567;55.684;37.570;2023-01-29T03:47:26;99159.72;;;1.11;52.41
70217;BME280;65567;55.684;37.570;2023-01-29T03:50:02;99140.44;;;1.35;51.65
70217;BME280;65567;55.684;37.570;2023-01-29T03:52:55;99147.22;;;1.42;51.20
70217;BME280;65567;55.684;37.570;2023-01-29T03:55:43;99139.22;;;1.59;51.01
70217;BME280;65567;55.684;37.570;2023-01-29T03:58:27;99132.34;;;1.58;51.19
70217;BME280;65567;55.684;37.570;2023-01-29T04:03:37;99136.41;;;1.75;50.29
70217;BME280;65567;55.684;37.570;2023-01-29T04:06:32;99134.50;;;1.86;49.99
70217;BME280;65567;55.684;37.570;2023-01-29T04:09:04;99125.91;;;1.84;49.97
70217;BME280;65567;55.684;37.570;2023-01-29T04:11:36;99121.91;;;1.66;50.43
70217;BME280;65567;55.684;37.570;2023-01-29T04:14:05;99115.81;;;1.72;50.22
70217;BME280;65567;55.684;37.570;2023-01-29T04:16:38;99120.06;;;1.74;50.40
70217;BME280;65567;55.684;37.570;2023-01-29T04:19:05;99108.06;;;1.70;50.14
70217;BME280;65567;55.684;37.570;2023-01-29T04:21:33;99116.53;;;1.80;50.08
70217;BME280;65567;55.684;37.570;2023-01-29T04:24:02;99109.56;;;1.82;49.95
70217;BME280;65567;55.684;37.570;2023-01-29T04:29:41;99119.13;;;1.77;49.80
70217;BME280;65567;55.684;37.570;2023-01-29T04:32:15;99115.66;;;1.81;49.91
70217;BME280;65567;55.684;37.570;2023-01-29T04:40:38;99104.69;;;1.65;49.97
70217;BME280;65567;55.684;37.570;2023-01-29T04:43:14;99102.88;;;1.73;49.87
70217;BME280;65567;55.684;37.570;2023-01-29T04:46:14;99110.25;;;1.93;49.46
70217;BME280;65567;55.684;37.570;2023-01-29T04:48:52;99111.38;;;1.77;49.61
70217;BME280;65567;55.684;37.570;2023-01-29T04:51:27;99097.72;;;1.72;49.87
70217;BME280;65567;55.684;37.570;2023-01-29T04:54:05;99111.31;;;1.81;49.75
70217;BME280;65567;55.684;37.570;2023-01-29T04:56:56;99106.22;;;1.78;49.56
70217;BME280;65567;55.684;37.570;2023-01-29T04:59:44;99103.88;;;1.64;50.39
70217;BME280;65567;55.684;37.570;2023-01-29T05:02:12;99097.72;;;1.70;50.03
70217;BME280;65567;55.684;37.570;2023-01-29T05:04:40;99094.56;;;1.54;50.47
70217;BME280;65567;55.684;37.570;2023-01-29T05:07:11;99087.69;;;1.53;50.65
70217;BME280;65567;55.684;37.570;2023-01-29T05:09:41;99087.69;;;1.53;50.94
70217;BME280;65567;55.684;37.570;2023-01-29T05:12:10;99083.41;;;1.52;50.83
70217;BME280;65567;55.684;37.570;2023-01-29T05:14:38;99078.22;;;1.52;50.66
70217;BME280;65567;55.684;37.570;2023-01-29T05:17:11;99094.41;;;1.63;50.63
70217;BME280;65567;55.684;37.570;2023-01-29T05:19:39;99089.97;;;1.70;50.50
70217;BME280;65567;55.684;37.570;2023-01-29T05:22:05;99099.34;;;1.77;50.07
70217;BME280;65567;55.684;37.570;2023-01-29T05:24:34;99096.72;;;1.79;50.07
70217;BME280;65567;55.684;37.570;2023-01-29T05:27:00;99092.41;;;1.81;50.05
70217;BME280;65567;55.684;37.570;2023-01-29T05:29:46;99084.75;;;1.75;50.08
70217;BME280;65567;55.684;37.570;2023-01-29T05:32:12;99088.63;;;1.49;50.95
70217;BME280;65567;55.684;37.570;2023-01-29T05:34:38;99097.13;;;1.54;51.13
70217;BME280;65567;55.684;37.570;2023-01-29T05:37:04;99101.19;;;1.71;50.81
70217;BME280;65567;55.684;37.570;2023-01-29T05:39:30;99095.28;;;1.62;50.79
70217;BME280;65567;55.684;37.570;2023-01-29T05:41:57;99099.66;;;1.57;51.13
70217;BME280;65567;55.684;37.570;2023-01-29T05:44:23;99095.28;;;1.62;50.84
70217;BME280;65567;55.684;37.570;2023-01-29T05:46:49;99094.38;;;1.67;50.73
70217;BME280;65567;55.684;37.570;2023-01-29T05:49:16;99091.91;;;1.57;51.09
70217;BME280;65567;55.684;37.570;2023-01-29T05:51:45;99096.06;;;1.69;50.78
70217;BME280;65567;55.684;37.570;2023-01-29T05:54:11;99099.22;;;1.85;50.35
70217;BME280;65567;55.684;37.570;2023-01-29T05:56:38;99098.59;;;1.71;50.95
70217;BME280;65567;55.684;37.570;2023-01-29T05:59:04;99092.66;;;1.65;51.11
70217;BME280;65567;55.684;37.570;2023-01-29T06:01:31;99089.00;;;1.77;50.63
70217;BME280;65567;55.684;37.570;2023-01-29T06:03:57;99108.78;;;1.80;50.65
70217;BME280;65567;55.684;37.570;2023-01-29T06:06:23;99107.97;;;1.76;50.62
70217;BME280;65567;55.684;37.570;2023-01-29T06:08:49;99103.88;;;1.64;50.98
70217;BME280;65567;55.684;37.570;2023-01-29T06:11:16;99100.31;;;1.72;50.84
70217;BME280;65567;55.684;37.570;2023-01-29T06:13:43;99100.31;;;1.72;50.80
70217;BME280;65567;55.684;37.570;2023-01-29T06:16:11;99105.56;;;1.65;51.00
70217;BME280;65567;55.684;37.570;2023-01-29T06:18:37;99100.66;;;1.50;51.12
70217;BME280;65567;55.684;37.570;2023-01-29T06:21:05;99092.94;;;1.48;51.54
70217;BME280;65567;55.684;37.570;2023-01-29T06:23:34;99093.63;;;1.58;51.46
70217;BME280;65567;55.684;37.570;2023-01-29T06:26:01;99086.63;;;1.67;51.46
70217;BME280;65567;55.684;37.570;2023-01-29T06:28:28;99079.94;;;1.53;51.56
70217;BME280;65567;55.684;37.570;2023-01-29T06:30:58;99075.59;;;1.57;51.38
70217;BME280;65567;55.684;37.570;2023-01-29T06:33:25;99075.31;;;1.74;51.11
70217;BME280;65567;55.684;37.570;2023-01-29T06:35:58;99078.50;;;1.88;50.92
70217;BME280;65567;55.684;37.570;2023-01-29T06:38:27;99074.94;;;1.95;50.54
70217;BME280;65567;55.684;37.570;2023-01-29T06:40:54;99074.09;;;1.93;50.35
70217;BME280;65567;55.684;37.570;2023-01-29T06:43:21;99075.47;;;1.64;51.41
70217;BME280;65567;55.684;37.570;2023-01-29T06:45:52;99079.66;;;1.72;51.18
70217;BME280;65567;55.684;37.570;2023-01-29T06:48:19;99082.97;;;1.77;50.83
70217;BME280;65567;55.684;37.570;2023-01-29T06:50:46;99082.72;;;1.92;50.71
70217;BME280;65567;55.684;37.570;2023-01-29T06:53:14;99086.03;;;2.01;50.42
70217;BME280;65567;55.684;37.570;2023-01-29T06:55:41;99070.53;;;2.01;50.56
70217;BME280;65567;55.684;37.570;2023-01-29T06:58:08;99066.16;;;2.04;50.20
70217;BME280;65567;55.684;37.570;2023-01-29T07:00:35;99059.25;;;2.05;50.32
70217;BME280;65567;55.684;37.570;2023-01-29T07:03:02;99053.88;;;2.15;50.02
70217;BME280;65567;55.684;37.570;2023-01-29T07:05:31;99051.13;;;2.23;49.70
70217;BME280;65567;55.684;37.570;2023-01-29T07:07:57;99056.72;;;2.03;50.57
70217;BME280;65567;55.684;37.570;2023-01-29T07:10:23;99042.03;;;2.04;50.27
70217;BME280;65567;55.684;37.570;2023-01-29T07:12:49;99036.19;;;1.95;50.59
70217;BME280;65567;55.684;37.570;2023-01-29T07:15:15;99045.38;;;2.09;50.24
70217;BME280;65567;55.684;37.570;2023-01-29T07:18:03;99049.75;;;2.05;50.18
70217;BME280;65567;55.684;37.570;2023-01-29T07:20:38;99051.91;;;2.28;49.80
70217;BME280;65567;55.684;37.570;2023-01-29T07:23:04;99041.59;;;2.27;49.65
70217;BME280;65567;55.684;37.570;2023-01-29T07:25:32;99052.63;;;2.35;49.28
70217;BME280;65567;55.684;37.570;2023-01-29T07:28:02;99051.81;;;2.33;49.47
70217;BME280;65567;55.684;37.570;2023-01-29T07:30:28;99042.63;;;2.18;49.96
70217;BME280;65567;55.684;37.570;2023-01-29T07:32:54;99041.75;;;2.19;49.83
70217;BME280;65567;55.684;37.570;2023-01-29T07:35:20;99042.41;;;2.30;49.78
70217;BME280;65567;55.684;37.570;2023-01-29T07:37:49;99041.06;;;2.11;49.84
70217;BME280;65567;55.684;37.570;2023-01-29T07:40:15;99040.97;;;2.14;49.74
70217;BME280;65567;55.684;37.570;2023-01-29T07:42:41;99044.16;;;2.28;49.53
70217;BME280;65567;55.684;37.570;2023-01-29T07:45:09;99043.94;;;2.38;49.30
70217;BME280;65567;55.684;37.570;2023-01-29T07:47:35;99036.97;;;2.43;49.31
70217;BME280;65567;55.684;37.570;2023-01-29T07:50:05;99033.81;;;2.28;49.59
70217;BME280;65567;55.684;37.570;2023-01-29T07:52:34;99028.75;;;2.22;49.51
70217;BME280;65567;55.684;37.570;2023-01-29T07:55:00;99025.25;;;2.26;49.23
70217;BME280;65567;55.684;37.570;2023-01-29T07:57:26;99016.66;;;2.24;49.30
70217;BME280;65567;55.684;37.570;2023-01-29T07:59:53;99011.50;;;2.24;49.20
70217;BME280;65567;55.684;37.570;2023-01-29T08:02:20;99002.75;;;2.30;49.23
70217;BME280;65567;55.684;37.570;2023-01-29T08:04:46;99001.88;;;2.31;49.00
70217;BME280;65567;55.684;37.570;2023-01-29T08:07:12;99008.88;;;2.26;49.04
70217;BME280;65567;55.684;37.570;2023-01-29T08:09:38;99014.56;;;2.42;48.64
70217;BME280;65567;55.684;37.570;2023-01-29T08:12:04;99002.38;;;2.48;48.35
70217;BME280;65567;55.684;37.570;2023-01-29T08:14:30;99017.09;;;2.45;48.39
70217;BME280;65567;55.684;37.570;2023-01-29T08:16:56;99001.63;;;2.42;48.65
70217;BME280;65567;55.684;37.570;2023-01-29T08:19:22;98992.00;;;2.50;48.20
70217;BME280;65567;55.684;37.570;2023-01-29T08:21:48;98991.75;;;2.61;48.03
70217;BME280;65567;55.684;37.570;2023-01-29T08:24:14;98989.88;;;2.68;47.88
70217;BME280;65567;55.684;37.570;2023-01-29T08:26:40;98991.13;;;2.50;47.91
70217;BME280;65567;55.684;37.570;2023-01-29T08:29:06;98991.72;;;2.62;47.55
70217;BME280;65567;55.684;37.570;2023-01-29T08:31:32;98986.84;;;2.50;48.15
70217;BME280;65567;55.684;37.570;2023-01-29T08:33:58;98975.78;;;2.42;47.89
70217;BME280;65567;55.684;37.570;2023-01-29T08:36:24;98986.28;;;2.36;48.12
70217;BME280;65567;55.684;37.570;2023-01-29T08:38:50;98984.41;;;2.42;47.81
70217;BME280;65567;55.684;37.570;2023-01-29T08:41:16;98981.78;;;2.44;47.76
70217;BME280;65567;55.684;37.570;2023-01-29T08:43:42;98985.91;;;2.53;47.42
70217;BME280;65567;55.684;37.570;2023-01-29T08:46:08;98985.97;;;2.50;47.33
70217;BME280;65567;55.684;37.570;2023-01-29T08:48:34;98990.50;;;2.40;47.17
70217;BME280;65567;55.684;37.570;2023-01-29T08:51:00;98993.56;;;2.57;47.33
70217;BME280;65567;55.684;37.570;2023-01-29T08:53:27;98985.50;;;2.71;46.79
70217;BME280;65567;55.684;37.570;2023-01-29T08:55:53;98979.63;;;2.64;47.04
70217;BME280;65567;55.684;37.570;2023-01-29T08:58:20;98983.75;;;2.72;46.82
70217;BME280;65567;55.684;37.570;2023-01-29T09:00:46;98978.78;;;2.62;47.03
70217;BME280;65567;55.684;37.570;2023-01-29T09:03:14;98982.34;;;2.58;47.21
70217;BME280;65567;55.684;37.570;2023-01-29T09:05:43;98973.63;;;2.62;47.21
70217;BME280;65567;55.684;37.570;2023-01-29T09:08:11;98969.34;;;2.61;47.16
70217;BME280;65567;55.684;37.570;2023-01-29T09:10:37;98965.81;;;2.66;46.71
70217;BME280;65567;55.684;37.570;2023-01-29T09:13:03;98960.06;;;2.53;47.30
70217;BME280;65567;55.684;37.570;2023-01-29T09:15:31;98961.56;;;2.63;47.17
70217;BME280;65567;55.684;37.570;2023-01-29T09:18:02;98961.03;;;2.85;46.59
70217;BME280;65567;55.684;37.570;2023-01-29T09:20:28;98974.09;;;2.80;46.56
70217;BME280;65567;55.684;37.570;2023-01-29T09:22:57;98974.22;;;2.74;46.62
70217;BME280;65567;55.684;37.570;2023-01-29T09:25:28;98964.03;;;2.68;46.85
70217;BME280;65567;55.684;37.570;2023-01-29T09:27:54;98955.31;;;2.72;46.91
70217;BME280;65567;55.684;37.570;2023-01-29T09:30:20;98962.94;;;2.78;46.76
70217;BME280;65567;55.684;37.570;2023-01-29T09:32:46;98955.03;;;2.84;46.61
70217;BME280;65567;55.684;37.570;2023-01-29T09:35:12;98950.91;;;2.75;46.66
70217;BME280;65567;55.684;37.570;2023-01-29T09:37:38;98943.81;;;2.85;46.44
70217;BME280;65567;55.684;37.570;2023-01-29T09:40:05;98927.06;;;2.62;46.80
70217;BME280;65567;55.684;37.570;2023-01-29T09:42:45;98926.91;;;2.70;46.77
70217;BME280;65567;55.684;37.570;2023-01-29T09:45:21;98930.63;;;2.58;47.07
70217;BME280;65567;55.684;37.570;2023-01-29T09:47:52;98929.38;;;2.75;46.54
70217;BME280;65567;55.684;37.570;2023-01-29T09:50:31;98919.25;;;2.66;46.99
70217;BME280;65567;55.684;37.570;2023-01-29T09:53:10;98925.75;;;2.82;46.56
70217;BME280;65567;55.684;37.570;2023-01-29T09:55:49;98931.94;;;2.76;46.69
70217;BME280;65567;55.684;37.570;2023-01-29T09:58:34;98918.03;;;2.80;46.71
70217;BME280;65567;55.684;37.570;2023-01-29T10:01:21;98927.31;;;2.89;46.87
70217;BME280;65567;55.684;37.570;2023-01-29T10:12:20;98900.63;;;2.87;46.71
70217;BME280;65567;55.684;37.570;2023-01-29T10:15:16;98894.34;;;2.97;46.59
70217;BME280;65567;55.684;37.570;2023-01-29T10:23:39;98881.56;;;2.91;46.62
70217;BME280;65567;55.684;37.570;2023-01-29T10:26:11;98870.88;;;2.71;47.01
70217;BME280;65567;55.684;37.570;2023-01-29T10:28:47;98868.09;;;2.77;47.38
70217;BME280;65567;55.684;37.570;2023-01-29T10:31:17;98852.81;;;2.68;47.60
70217;BME280;65567;55.684;37.570;2023-01-29T10:33:53;98846.03;;;2.63;47.36
70217;BME280;65567;55.684;37.570;2023-01-29T10:36:24;98839.97;;;2.64;47.27
70217;BME280;65567;55.684;37.570;2023-01-29T10:38:51;98837.31;;;2.68;47.33
70217;BME280;65567;55.684;37.570;2023-01-29T10:41:52;98828.53;;;2.75;46.97
70217;BME280;65567;55.684;37.570;2023-01-29T10:44:31;98822.06;;;2.91;46.90
70217;BME280;65567;55.684;37.570;2023-01-29T10:55:40;98819.72;;;3.15;46.27
70217;BME280;65567;55.684;37.570;2023-01-29T10:58:30;98815.84;;;2.98;46.70
70217;BME280;65567;55.684;37.570;2023-01-29T11:00:54;98805.47;;;2.98;46.69
70217;BME280;65567;55.684;37.570;2023-01-29T11:03:29;98806.13;;;3.07;46.68
70217;BME280;65567;55.684;37.570;2023-01-29T11:06:03;98805.13;;;3.12;46.28
70217;BME280;65567;55.684;37.570;2023-01-29T11:08:50;98800.63;;;3.19;46.27
70217;BME280;65567;55.684;37.570;2023-01-29T11:11:18;98795.03;;;3.02;46.82
70217;BME280;65567;55.684;37.570;2023-01-29T11:14:18;98794.22;;;2.67;47.40
70217;BME280;65567;55.684;37.570;2023-01-29T11:16:47;98788.91;;;2.73;47.61
70217;BME280;65567;55.684;37.570;2023-01-29T11:19:14;98792.22;;;2.78;47.18
70217;BME280;65567;55.684;37.570;2023-01-29T11:21:51;98792.88;;;2.86;47.19
70217;BME280;65567;55.684;37.570;2023-01-29T11:24:17;98787.78;;;2.83;47.25
70217;BME280;65567;55.684;37.570;2023-01-29T11:26:47;98787.53;;;2.92;47.23
70217;BME280;65567;55.684;37.570;2023-01-29T11:29:33;98789.22;;;2.93;46.87
70217;BME280;65567;55.684;37.570;2023-01-29T11:32:25;98788.25;;;2.64;47.76
70217;BME280;65567;55.684;37.570;2023-01-29T11:37:41;98788.81;;;2.77;47.52
70217;BME280;65567;55.684;37.570;2023-01-29T11:42:49;98783.28;;;2.90;47.43
70217;BME280;65567;55.684;37.570;2023-01-29T11:45:29;98773.56;;;3.00;47.37
70217;BME280;65567;55.684;37.570;2023-01-29T11:47:58;98771.53;;;3.09;47.04
70217;BME280;65567;55.684;37.570;2023-01-29T11:50:32;98769.97;;;3.04;47.46
70217;BME280;65567;55.684;37.570;2023-01-29T11:52:58;98771.31;;;3.17;46.95
70217;BME280;65567;55.684;37.570;2023-01-29T11:55:27;98766.53;;;3.35;46.63
70217;BME280;65567;55.684;37.570;2023-01-29T11:58:05;98760.53;;;3.33;46.74
70217;BME280;65567;55.684;37.570;2023-01-29T12:00:34;98760.69;;;3.28;46.70
70217;BME280;65567;55.684;37.570;2023-01-29T12:05:54;98753.50;;;3.38;46.50
70217;BME280;65567;55.684;37.570;2023-01-29T12:08:21;98758.41;;;3.47;46.30
70217;BME280;65567;55.684;37.570;2023-01-29T12:10:49;98755.63;;;3.23;46.91
70217;BME280;65567;55.684;37.570;2023-01-29T12:13:25;98744.00;;;3.07;47.49
70217;BME280;65567;55.684;37.570;2023-01-29T12:16:49;98754.13;;;3.16;47.24
70217;BME280;65567;55.684;37.570;2023-01-29T12:19:09;98757.59;;;3.15;47.13
70217;BME280;65567;55.684;37.570;2023-01-29T12:21:45;98748.09;;;3.16;47.18
70217;BME280;65567;55.684;37.570;2023-01-29T12:27:20;98754.56;;;3.01;47.50
70217;BME280;65567;55.684;37.570;2023-01-29T12:29:54;98750.38;;;2.95;47.49
70217;BME280;65567;55.684;37.570;2023-01-29T12:35:34;98748.25;;;2.78;48.11
70217;BME280;65567;55.684;37.570;2023-01-29T12:40:55;98746.44;;;2.81;48.25
70217;BME280;65567;55.684;37.570;2023-01-29T12:43:44;98750.59;;;2.87;48.17
70217;BME280;65567;55.684;37.570;2023-01-29T12:46:23;98758.03;;;2.67;48.88
70217;BME280;65567;55.684;37.570;2023-01-29T12:48:52;98751.56;;;2.83;48.53
70217;BME280;65567;55.684;37.570;2023-01-29T12:51:26;98749.69;;;2.88;48.24
70217;BME280;65567;55.684;37.570;2023-01-29T12:53:55;98748.81;;;2.89;48.03
70217;BME280;65567;55.684;37.570;2023-01-29T12:58:54;98748.34;;;2.75;48.44
70217;BME280;65567;55.684;37.570;2023-01-29T13:01:36;98759.00;;;2.62;48.85
70217;BME280;65567;55.684;37.570;2023-01-29T13:04:34;98752.38;;;2.52;49.29
70217;BME280;65567;55.684;37.570;2023-01-29T13:07:15;98743.56;;;2.25;49.86
70217;BME280;65567;55.684;37.570;2023-01-29T13:09:50;98757.72;;;2.10;50.58
70217;BME280;65567;55.684;37.570;2023-01-29T13:12:19;98748.41;;;2.03;51.25
70217;BME280;65567;55.684;37.570;2023-01-29T13:14:58;98736.69;;;2.25;50.59
70217;BME280;65567;55.684;37.570;2023-01-29T13:17:46;98740.66;;;2.39;50.32
70217;BME280;65567;55.684;37.570;2023-01-29T13:20:22;98730.44;;;2.34;50.31
70217;BME280;65567;55.684;37.570;2023-01-29T13:22:51;98734.03;;;2.28;50.51
70217;BME280;65567;55.684;37.570;2023-01-29T13:25:19;98738.34;;;2.28;50.54
70217;BME280;65567;55.684;37.570;2023-01-29T13:27:46;98723.53;;;2.35;50.30
70217;BME280;65567;55.684;37.570;2023-01-29T13:30:27;98729.81;;;2.24;50.49
70217;BME280;65567;55.684;37.570;2023-01-29T13:32:55;98727.75;;;2.04;51.26
70217;BME280;65567;55.684;37.570;2023-01-29T13:35:44;98732.56;;;2.18;51.28
70217;BME280;65567;55.684;37.570;2023-01-29T13:38:29;98728.84;;;2.28;50.75
70217;BME280;65567;55.684;37.570;2023-01-29T13:41:03;98728.06;;;2.25;50.80
70217;BME280;65567;55.684;37.570;2023-01-29T13:43:36;98729.91;;;2.20;51.04
70217;BME280;65567;55.684;37.570;2023-01-29T13:46:12;98719.97;;;2.39;50.80
70217;BME280;65567;55.684;37.570;2023-01-29T13:48:44;98713.56;;;2.54;50.14
70217;BME280;65567;55.684;37.570;2023-01-29T13:51:14;98718.31;;;2.36;50.69
70217;BME280;65567;55.684;37.570;2023-01-29T13:53:56;98720.25;;;2.28;50.90
70217;BME280;65567;55.684;37.570;2023-01-29T13:58:55;98710.94;;;2.55;50.49
70217;BME280;65567;55.684;37.570;2023-01-29T14:06:51;98703.44;;;2.44;50.29
70217;BME280;65567;55.684;37.570;2023-01-29T14:17:18;98702.03;;;2.33;51.01
70217;BME280;65567;55.684;37.570;2023-01-29T14:19:52;98693.09;;;2.46;50.87
70217;BME280;65567;55.684;37.570;2023-01-29T14:22:22;98695.88;;;2.38;50.89
70217;BME280;65567;55.684;37.570;2023-01-29T14:24:54;98680.38;;;2.37;50.85
70217;BME280;65567;55.684;37.570;2023-01-29T14:27:23;98685.81;;;2.27;51.38
70217;BME280;65567;55.684;37.570;2023-01-29T14:29:50;98675.47;;;2.27;51.05
70217;BME280;65567;55.684;37.570;2023-01-29T14:32:23;98689.13;;;2.33;51.19
70217;BME280;65567;55.684;37.570;2023-01-29T14:35:00;98681.31;;;2.36;51.28
70217;BME280;65567;55.684;37.570;2023-01-29T14:37:38;98684.84;;;2.31;51.22
70217;BME280;65567;55.684;37.570;2023-01-29T14:45:30;98692.81;;;2.22;51.80
70217;BME280;65567;55.684;37.570;2023-01-29T14:52:58;98685.56;;;2.37;51.76
70217;BME280;65567;55.684;37.570;2023-01-29T14:55:34;98684.28;;;2.20;52.43
70217;BME280;65567;55.684;37.570;2023-01-29T14:58:02;98685.97;;;2.21;52.46
70217;BME280;65567;55.684;37.570;2023-01-29T15:00:32;98685.53;;;2.04;52.83
70217;BME280;65567;55.684;37.570;2023-01-29T15:03:00;98682.56;;;2.19;52.47
70217;BME280;65567;55.684;37.570;2023-01-29T15:05:34;98675.41;;;2.30;52.21